Time;durP1;ratioP1;P1;durP2;ratioP2;P2;SDS_P1;SDS_P2;PMS_P1;PMS_P2;Temp;Humidity;BMP_temperature;BMP_pressure;BME280_temperature;BME280_humidity;BME280_pressure;Samples;Min_cycle;Max_cycle;Signal;HPM_P1;HPM_P2
2023/01/10 00:01:51;;;;;;;15.90;7.30;;;8.70;99.90;;;;;;4909155;29;20188;-70
2023/01/10 00:04:17;;;;;;;11.83;7.00;;;8.60;99.90;;;;;;4909515;29;20214;-70
2023/01/10 00:06:42;;;;;;;13.10;7.13;;;8.70;99.90;;;;;;4911170;29;20184;-71
2023/01/10 00:09:10;;;;;;;14.30;7.57;;;8.70;99.90;;;;;;4899023;29;20188;-71
2023/01/10 00:14:19;;;;;;;16.93;9.03;;;8.70;99.90;;;;;;4907087;29;20443;-73
2023/01/10 00:16:45;;;;;;;16.00;7.87;;;8.80;99.90;;;;;;4906697;29;20449;-72
2023/01/10 00:19:11;;;;;;;15.90;7.87;;;8.70;99.90;;;;;;4905724;29;20192;-71
2023/01/10 00:21:38;;;;;;;14.90;8.10;;;8.70;99.90;;;;;;4904771;29;20433;-71
2023/01/10 00:24:20;;;;;;;14.10;7.40;;;8.70;99.90;;;;;;4902826;29;20203;-70
2023/01/10 00:26:51;;;;;;;12.97;7.10;;;8.80;99.90;;;;;;4901040;29;20527;-71
2023/01/10 00:29:22;;;;;;;17.20;8.13;;;8.80;99.90;;;;;;4914969;29;20514;-71
2023/01/10 00:31:47;;;;;;;15.47;7.90;;;8.80;99.90;;;;;;4915883;29;20484;-71
2023/01/10 00:34:13;;;;;;;18.30;8.03;;;8.70;99.90;;;;;;4914502;29;20450;-71
2023/01/10 00:36:39;;;;;;;17.73;7.87;;;8.70;99.90;;;;;;4912689;29;20227;-71
2023/01/10 00:39:05;;;;;;;27.40;8.83;;;8.70;99.90;;;;;;4911539;29;20636;-72
2023/01/10 00:44:15;;;;;;;17.83;6.70;;;8.70;99.90;;;;;;4909819;29;20438;-72
2023/01/10 00:46:40;;;;;;;11.87;8.33;;;8.70;99.90;;;;;;4909646;29;20975;-72
2023/01/10 00:49:10;;;;;;;17.83;8.50;;;8.70;99.90;;;;;;4908097;29;20297;-72
2023/01/10 00:51:36;;;;;;;15.47;7.40;;;8.60;99.90;;;;;;4915115;29;20558;-72
2023/01/10 00:54:02;;;;;;;15.57;6.80;;;8.60;99.90;;;;;;4916701;29;20454;-72
2023/01/10 00:56:27;;;;;;;19.63;7.03;;;8.50;99.90;;;;;;4918415;29;20223;-72
2023/01/10 00:58:53;;;;;;;13.13;7.37;;;8.60;99.90;;;;;;4919542;29;20308;-72
2023/01/10 01:01:18;;;;;;;16.30;7.43;;;8.70;99.90;;;;;;4918031;29;20184;-72
2023/01/10 01:03:44;;;;;;;14.73;7.50;;;8.70;99.90;;;;;;4916428;29;20219;-71
2023/01/10 01:06:09;;;;;;;15.60;7.10;;;8.60;99.90;;;;;;4914760;29;20270;-69
2023/01/10 01:08:35;;;;;;;12.13;7.63;;;8.60;99.90;;;;;;4913143;29;20184;-69
2023/01/10 01:11:00;;;;;;;12.20;6.57;;;8.80;99.90;;;;;;4911489;29;20222;-68
2023/01/10 01:13:26;;;;;;;12.43;6.93;;;8.70;99.90;;;;;;4909776;29;20275;-69
2023/01/10 01:15:52;;;;;;;16.10;7.33;;;8.70;99.90;;;;;;4908051;29;20262;-70
2023/01/10 01:18:20;;;;;;;17.70;6.50;;;8.70;99.90;;;;;;4906679;29;20936;-72
2023/01/10 01:20:46;;;;;;;13.20;5.90;;;8.70;99.90;;;;;;4904257;29;20214;-71
2023/01/10 01:23:13;;;;;;;13.37;6.80;;;8.60;99.90;;;;;;4903189;29;20439;-71
2023/01/10 01:25:39;;;;;;;10.70;7.00;;;8.60;99.90;;;;;;4917568;29;20439;-71
2023/01/10 01:28:05;;;;;;;17.87;7.03;;;8.60;99.90;;;;;;4918258;29;20431;-72
2023/01/10 01:30:30;;;;;;;8.77;5.37;;;8.60;99.90;;;;;;4916621;29;20192;-72
2023/01/10 05:31:44;;;;;;;13.67;4.30;;;7.80;99.90;;;;;;5337553;23;20656;-74
2023/01/10 05:34:11;;;;;;;10.37;4.47;;;7.90;99.90;;;;;;4901293;29;20451;-72
2023/01/10 05:36:37;;;;;;;18.27;4.43;;;7.90;99.90;;;;;;4902232;29;20294;-72
2023/01/10 05:39:03;;;;;;;7.27;3.37;;;8.00;99.90;;;;;;4907650;29;20536;-69
2023/01/10 05:41:28;;;;;;;19.07;4.73;;;8.10;99.90;;;;;;4909156;29;20696;-72
2023/01/10 05:43:54;;;;;;;9.47;4.27;;;8.00;99.90;;;;;;4901014;29;20370;-72
2023/01/10 05:46:20;;;;;;;8.47;3.70;;;8.10;99.90;;;;;;4896358;29;20199;-73
2023/01/10 05:48:46;;;;;;;13.70;4.60;;;8.00;99.90;;;;;;4896464;29;20168;-73
2023/01/10 05:51:11;;;;;;;14.77;4.83;;;8.00;99.90;;;;;;4914724;29;20470;-72
2023/01/10 05:53:37;;;;;;;6.97;3.60;;;8.10;99.90;;;;;;4913632;29;20202;-73
2023/01/10 05:56:04;;;;;;;21.77;4.57;;;8.10;99.90;;;;;;4913210;29;20689;-72
2023/01/10 05:58:29;;;;;;;10.90;3.63;;;8.00;99.90;;;;;;4906913;29;20188;-73
2023/01/10 06:00:56;;;;;;;16.73;4.90;;;8.00;99.90;;;;;;4899844;29;20445;-72
2023/01/10 06:03:22;;;;;;;9.63;4.30;;;8.00;99.90;;;;;;4904783;29;20216;-72
2023/01/10 06:05:47;;;;;;;19.23;4.60;;;8.00;99.90;;;;;;4903124;29;20481;-72
2023/01/10 06:08:13;;;;;;;20.33;6.00;;;8.00;99.90;;;;;;4904794;29;20813;-72
2023/01/10 06:10:38;;;;;;;10.10;4.20;;;8.10;99.90;;;;;;4908097;29;20188;-71
2023/01/10 06:13:04;;;;;;;16.10;4.90;;;8.00;99.90;;;;;;4908099;29;20628;-71
2023/01/10 06:15:30;;;;;;;14.10;4.20;;;8.00;99.90;;;;;;4913065;29;20220;-72
2023/01/10 06:17:56;;;;;;;14.57;3.90;;;8.00;99.90;;;;;;4913451;29;20183;-71
2023/01/10 06:20:21;;;;;;;9.30;3.53;;;8.00;99.90;;;;;;4914650;29;20437;-71
2023/01/10 06:22:47;;;;;;;11.83;3.90;;;8.10;99.90;;;;;;4912581;29;20173;-71
2023/01/10 06:25:13;;;;;;;10.97;4.07;;;8.10;99.90;;;;;;4913918;29;20252;-72
2023/01/10 06:27:42;;;;;;;9.30;3.93;;;8.00;99.90;;;;;;4899295;29;20243;-71
2023/01/10 06:30:11;;;;;;;13.90;4.30;;;8.00;99.90;;;;;;4884059;29;20696;-71
2023/01/10 06:32:37;;;;;;;14.60;4.90;;;8.00;99.90;;;;;;4902806;29;20485;-71
2023/01/10 06:35:03;;;;;;;16.90;4.23;;;7.90;99.90;;;;;;4904481;29;20504;-71
2023/01/10 06:37:29;;;;;;;11.70;3.40;;;7.90;99.90;;;;;;4906625;29;20804;-70
2023/01/10 06:39:54;;;;;;;11.23;4.40;;;8.00;99.90;;;;;;4908165;29;20427;-71
2023/01/10 06:42:20;;;;;;;13.03;4.07;;;7.90;99.90;;;;;;4909407;29;20250;-71
2023/01/10 06:44:45;;;;;;;12.83;3.83;;;7.90;99.90;;;;;;4911568;29;20188;-71
2023/01/10 06:47:11;;;;;;;10.30;5.07;;;8.00;99.90;;;;;;4913474;29;20195;-71
2023/01/10 06:49:37;;;;;;;16.20;4.50;;;7.90;99.90;;;;;;4901862;29;20199;-71
2023/01/10 06:52:02;;;;;;;16.37;4.47;;;7.90;99.90;;;;;;4900285;29;20194;-71
2023/01/10 06:54:28;;;;;;;11.50;4.37;;;8.00;99.90;;;;;;4911819;29;20184;-71
2023/01/10 06:56:53;;;;;;;16.00;5.53;;;8.00;99.90;;;;;;4915723;29;20227;-71
2023/01/10 06:59:19;;;;;;;13.13;4.00;;;8.00;99.90;;;;;;4914294;29;20192;-71
2023/01/10 07:01:44;;;;;;;20.00;4.73;;;8.00;99.90;;;;;;4910841;29;20637;-71
2023/01/10 07:04:10;;;;;;;12.40;4.20;;;8.00;99.90;;;;;;4905346;29;20184;-71
2023/01/10 07:06:38;;;;;;;24.47;5.70;;;7.90;99.90;;;;;;4907343;29;20226;-71
2023/01/10 07:09:05;;;;;;;15.70;6.60;;;8.10;99.90;;;;;;4897459;29;20192;-71
2023/01/10 07:11:31;;;;;;;14.47;4.97;;;8.10;99.90;;;;;;4909955;29;20442;-71
2023/01/10 07:13:57;;;;;;;15.20;5.47;;;8.10;99.90;;;;;;4912167;29;20440;-71
2023/01/10 07:16:23;;;;;;;17.43;6.33;;;8.10;99.90;;;;;;4913907;29;20499;-71
2023/01/10 07:18:48;;;;;;;19.07;4.90;;;8.10;99.90;;;;;;4915075;29;20180;-71
2023/01/10 07:21:15;;;;;;;18.53;6.40;;;8.00;99.90;;;;;;4907838;29;20195;-71
2023/01/10 07:23:42;;;;;;;9.07;4.37;;;8.00;99.90;;;;;;4910444;29;20180;-72
2023/01/10 07:26:10;;;;;;;19.17;6.20;;;8.00;99.90;;;;;;4914227;29;20930;-72
2023/01/10 07:28:36;;;;;;;17.10;5.40;;;8.00;99.90;;;;;;4912459;29;20459;-71
2023/01/10 07:31:04;;;;;;;12.30;5.00;;;8.10;99.90;;;;;;4909037;29;20482;-72
2023/01/10 07:33:30;;;;;;;15.70;6.40;;;8.10;99.90;;;;;;4912963;29;20439;-71
2023/01/10 07:35:56;;;;;;;16.77;5.33;;;8.00;99.90;;;;;;4914858;29;21016;-71
2023/01/10 07:38:22;;;;;;;23.07;6.37;;;8.00;99.90;;;;;;4897066;29;20432;-71
2023/01/10 07:40:48;;;;;;;15.90;5.60;;;8.00;99.90;;;;;;4913985;29;20471;-71
2023/01/10 07:43:13;;;;;;;16.77;4.87;;;8.10;99.90;;;;;;4911801;29;20172;-72
2023/01/10 07:45:39;;;;;;;20.80;6.07;;;8.10;99.90;;;;;;4912898;29;20628;-71
2023/01/10 07:48:05;;;;;;;13.13;5.57;;;8.10;99.90;;;;;;4910030;29;20190;-72
2023/01/10 07:50:34;;;;;;;17.53;5.53;;;8.10;99.90;;;;;;4910322;29;20180;-72
2023/01/10 07:53:02;;;;;;;15.80;5.23;;;8.10;99.90;;;;;;4910509;29;20463;-72
2023/01/10 07:55:28;;;;;;;17.17;5.87;;;8.10;99.90;;;;;;4913309;29;20471;-72
2023/01/10 07:57:54;;;;;;;13.40;5.60;;;8.20;99.90;;;;;;4912717;29;20507;-72
2023/01/10 08:00:20;;;;;;;16.93;5.70;;;8.20;99.90;;;;;;4915019;29;21007;-73
2023/01/10 08:02:46;;;;;;;21.60;5.90;;;8.20;99.90;;;;;;4913895;29;20652;-73
2023/01/10 08:05:13;;;;;;;19.47;6.73;;;8.20;99.90;;;;;;4913849;29;20443;-72
2023/01/10 08:07:38;;;;;;;17.30;5.73;;;8.20;99.90;;;;;;4911500;29;20490;-72
2023/01/10 08:10:05;;;;;;;23.60;6.60;;;8.20;99.90;;;;;;4912657;29;20539;-71
2023/01/10 08:12:31;;;;;;;23.73;6.73;;;8.20;99.90;;;;;;4909733;29;20180;-71
2023/01/10 08:14:57;;;;;;;24.60;7.10;;;8.20;99.90;;;;;;4906535;29;20543;-72
2023/01/10 08:17:23;;;;;;;18.43;6.43;;;8.20;99.90;;;;;;4910087;29;20958;-71
2023/01/10 08:19:48;;;;;;;15.57;5.80;;;8.20;99.90;;;;;;4911339;29;20428;-71
2023/01/10 08:22:14;;;;;;;17.63;5.47;;;8.20;99.90;;;;;;4911840;29;20639;-71
2023/01/10 08:24:39;;;;;;;14.03;5.90;;;8.30;99.90;;;;;;4912141;29;20566;-71
2023/01/10 08:27:05;;;;;;;13.23;4.73;;;8.20;99.90;;;;;;4914024;29;20180;-72
2023/01/10 08:29:30;;;;;;;17.93;6.30;;;8.20;99.90;;;;;;4914102;29;20188;-71
2023/01/10 08:31:56;;;;;;;17.20;6.03;;;8.20;99.90;;;;;;4909869;29;20238;-70
2023/01/10 08:34:22;;;;;;;23.30;6.67;;;8.20;99.90;;;;;;4910217;29;20171;-70
2023/01/10 08:36:51;;;;;;;15.57;6.20;;;8.10;99.90;;;;;;4909994;29;20242;-70
2023/01/10 08:39:17;;;;;;;20.03;6.60;;;8.20;99.90;;;;;;4911664;29;20188;-70
2023/01/10 08:41:42;;;;;;;18.20;6.10;;;8.20;99.90;;;;;;4899740;29;20440;-70
2023/01/10 08:44:10;;;;;;;24.20;7.20;;;8.20;99.90;;;;;;4896808;29;20279;-70
2023/01/10 08:46:37;;;;;;;24.37;6.90;;;8.20;99.90;;;;;;4912454;29;20184;-70
2023/01/10 08:49:02;;;;;;;18.00;6.37;;;8.20;99.90;;;;;;4910365;29;20441;-70
2023/01/10 08:51:28;;;;;;;28.90;7.57;;;8.30;99.90;;;;;;4909541;29;21094;-70
2023/01/10 08:53:53;;;;;;;28.90;6.77;;;8.20;99.90;;;;;;4907468;29;20191;-69
2023/01/10 08:56:19;;;;;;;26.03;6.90;;;8.30;99.90;;;;;;4905492;29;20291;-70
2023/01/10 08:58:44;;;;;;;23.67;6.50;;;8.30;99.90;;;;;;4906741;29;20215;-70
2023/01/10 09:01:11;;;;;;;16.80;5.80;;;8.30;99.90;;;;;;4908680;29;20223;-70
2023/01/10 09:03:38;;;;;;;30.00;9.90;;;8.20;99.90;;;;;;4903350;29;20212;-70
2023/01/10 09:06:04;;;;;;;15.33;6.63;;;8.20;99.90;;;;;;4914651;29;20515;-70
2023/01/10 09:08:30;;;;;;;21.83;8.30;;;8.20;99.90;;;;;;4899947;29;20793;-70
2023/01/10 09:11:01;;;;;;;15.03;5.93;;;8.20;99.90;;;;;;4918393;29;20554;-70
2023/01/10 09:13:28;;;;;;;17.50;5.20;;;8.10;99.90;;;;;;4916732;29;20194;-69
2023/01/10 09:15:54;;;;;;;17.67;8.10;;;8.20;99.90;;;;;;4914953;29;20487;-70
2023/01/10 09:18:19;;;;;;;19.60;5.07;;;8.20;99.90;;;;;;4913646;29;20861;-69
2023/01/10 09:20:45;;;;;;;20.80;5.60;;;8.10;99.90;;;;;;4911847;29;20785;-70
2023/01/10 09:23:17;;;;;;;17.13;7.90;;;8.20;99.90;;;;;;4910132;29;20195;-69
2023/01/10 09:25:44;;;;;;;22.13;6.60;;;8.20;99.90;;;;;;4914784;29;20196;-69
2023/01/10 09:28:10;;;;;;;17.80;5.80;;;8.20;99.90;;;;;;4911819;29;20786;-69
2023/01/10 09:30:36;;;;;;;13.57;5.87;;;8.20;99.90;;;;;;4896318;29;20453;-69
2023/01/10 09:33:02;;;;;;;11.07;5.83;;;8.30;99.90;;;;;;4893492;29;20452;-69
2023/01/10 09:35:29;;;;;;;17.67;6.83;;;8.30;99.90;;;;;;4906763;29;20220;-69
2023/01/10 09:37:57;;;;;;;18.87;5.90;;;8.20;99.90;;;;;;4899606;29;20472;-69
2023/01/10 09:40:59;;;;;;;16.10;6.00;;;8.20;99.90;;;;;;4890870;29;20447;-69
2023/01/10 09:44:01;;;;;;;15.30;5.70;;;8.20;99.90;;;;;;4903912;29;20805;-69
2023/01/10 09:46:48;;;;;;;20.07;6.43;;;8.30;99.90;;;;;;4898801;29;20463;-69
2023/01/10 09:49:46;;;;;;;14.47;5.20;;;8.20;99.90;;;;;;4915696;29;20562;-69
2023/01/10 09:52:31;;;;;;;16.97;6.10;;;8.30;99.90;;;;;;4908829;29;20477;-69
2023/01/10 09:55:01;;;;;;;19.73;6.80;;;8.20;99.90;;;;;;4911304;29;20434;-70
2023/01/10 09:57:27;;;;;;;22.97;6.23;;;8.30;99.90;;;;;;4913048;29;20487;-69
2023/01/10 09:59:53;;;;;;;13.13;5.40;;;8.30;99.90;;;;;;4903606;29;20478;-70
2023/01/10 10:02:29;;;;;;;15.20;5.80;;;8.30;99.90;;;;;;4903046;29;20253;-70
2023/01/10 10:05:10;;;;;;;17.90;5.33;;;8.30;99.90;;;;;;4889577;29;20694;-70
2023/01/10 10:07:36;;;;;;;14.20;6.57;;;8.30;99.90;;;;;;4914644;29;20445;-70
2023/01/10 10:10:04;;;;;;;21.77;6.33;;;8.40;99.90;;;;;;4908297;29;20520;-70
2023/01/10 10:12:44;;;;;;;23.03;6.63;;;8.40;99.90;;;;;;4904662;29;20440;-70
2023/01/10 10:15:39;;;;;;;23.00;6.87;;;8.50;99.90;;;;;;4911904;29;20527;-70
2023/01/10 10:18:33;;;;;;;22.53;6.80;;;8.50;99.90;;;;;;4909252;29;20450;-69
2023/01/10 10:21:27;;;;;;;31.03;7.10;;;8.40;99.90;;;;;;4907655;29;20472;-69
2023/01/10 10:24:32;;;;;;;29.13;7.40;;;8.50;99.90;;;;;;4910730;29;20440;-70
2023/01/10 10:27:20;;;;;;;19.83;5.17;;;8.50;99.90;;;;;;4914776;29;20442;-70
2023/01/10 10:30:08;;;;;;;20.57;6.57;;;8.60;99.90;;;;;;4912979;29;20439;-71
2023/01/10 10:33:21;;;;;;;18.60;7.50;;;8.60;99.90;;;;;;4911242;29;20957;-70
2023/01/10 10:35:59;;;;;;;18.27;5.67;;;8.70;99.90;;;;;;4827749;29;20577;-70
2023/01/10 10:38:28;;;;;;;21.30;5.90;;;8.70;99.90;;;;;;4824622;29;20490;-70
2023/01/10 10:40:57;;;;;;;21.10;7.30;;;8.70;99.90;;;;;;4868968;29;20444;-69
2023/01/10 10:43:30;;;;;;;12.57;5.77;;;8.80;99.90;;;;;;4914633;29;20769;-69
2023/01/10 10:46:09;;;;;;;18.27;6.60;;;8.80;99.90;;;;;;4917112;29;20451;-69
2023/01/10 10:48:45;;;;;;;20.33;6.03;;;8.90;99.90;;;;;;4906676;29;20482;-68
2023/01/10 10:51:24;;;;;;;21.97;6.50;;;9.00;99.90;;;;;;4909146;29;20440;-69
2023/01/10 10:53:50;;;;;;;31.60;6.30;;;9.00;99.90;;;;;;4903921;29;20428;-69
2023/01/10 10:56:20;;;;;;;22.63;6.00;;;9.00;99.90;;;;;;4914889;29;20483;-69
2023/01/10 10:58:49;;;;;;;17.13;5.30;;;9.10;99.90;;;;;;4916643;29;20271;-68
2023/01/10 11:01:15;;;;;;;23.37;5.80;;;9.20;99.90;;;;;;4913355;29;20452;-69
2023/01/10 11:03:50;;;;;;;19.20;5.87;;;9.40;99.90;;;;;;4901068;29;20807;-69
2023/01/10 11:06:18;;;;;;;24.07;5.80;;;9.40;99.90;;;;;;4902799;29;21044;-69
2023/01/10 11:08:46;;;;;;;19.03;5.57;;;9.50;99.90;;;;;;4906238;29;20800;-69
2023/01/10 11:11:15;;;;;;;24.33;6.10;;;9.40;99.90;;;;;;4914021;29;20438;-69
2023/01/10 11:13:56;;;;;;;22.63;5.10;;;9.40;99.90;;;;;;4913977;29;20447;-69
2023/01/10 11:16:35;;;;;;;16.80;4.40;;;9.40;99.90;;;;;;4914308;29;20479;-69
2023/01/10 11:19:24;;;;;;;17.83;4.80;;;9.40;99.90;;;;;;4913626;29;20428;-69
2023/01/10 11:22:00;;;;;;;15.80;4.80;;;9.50;99.90;;;;;;4911567;29;20450;-69
2023/01/10 11:24:33;;;;;;;30.97;6.37;;;9.50;99.90;;;;;;4911129;29;20427;-69
2023/01/10 11:27:03;;;;;;;27.33;6.27;;;9.60;99.90;;;;;;4909999;29;20861;-68
2023/01/10 11:29:41;;;;;;;26.63;7.70;;;9.60;99.90;;;;;;4908452;29;20435;-70
2023/01/10 11:32:13;;;;;;;21.93;6.17;;;9.70;99.90;;;;;;4910550;29;20471;-69
2023/01/10 11:34:40;;;;;;;22.90;5.00;;;9.60;99.90;;;;;;4912844;29;20436;-69
2023/01/10 11:37:27;;;;;;;24.60;5.40;;;9.60;99.90;;;;;;4914183;29;20503;-69
2023/01/10 11:40:14;;;;;;;13.33;6.00;;;9.60;99.90;;;;;;4914197;29;20442;-69
2023/01/10 11:42:40;;;;;;;16.80;4.53;;;9.60;99.90;;;;;;4913281;29;20428;-68
2023/01/10 11:45:18;;;;;;;12.60;4.50;;;9.60;99.90;;;;;;4913714;29;20442;-68
2023/01/10 11:47:55;;;;;;;21.87;5.90;;;9.70;99.90;;;;;;4913683;29;20577;-69
2023/01/10 11:50:31;;;;;;;13.70;4.90;;;9.70;99.90;;;;;;4910885;29;20431;-68
2023/01/10 11:52:57;;;;;;;12.97;5.03;;;9.70;99.90;;;;;;4909868;29;20498;-68
2023/01/10 11:55:26;;;;;;;12.17;5.67;;;9.70;99.90;;;;;;4910718;29;20550;-69
2023/01/10 11:58:08;;;;;;;18.50;5.90;;;9.60;99.90;;;;;;4908000;29;20564;-70
2023/01/10 12:00:39;;;;;;;17.57;4.60;;;9.60;99.90;;;;;;4901057;29;20958;-71
2023/01/10 12:03:20;;;;;;;13.57;4.80;;;9.50;99.90;;;;;;4906401;29;20436;-70
2023/01/10 12:06:02;;;;;;;12.00;5.07;;;9.50;99.90;;;;;;4907997;29;20534;-70
2023/01/10 12:08:41;;;;;;;15.03;4.40;;;9.40;99.90;;;;;;4906056;29;20526;-70
2023/01/10 12:11:22;;;;;;;19.67;5.73;;;9.40;99.90;;;;;;4914229;29;20443;-70
2023/01/10 12:13:50;;;;;;;26.10;5.20;;;9.40;99.90;;;;;;4912113;29;20479;-70
2023/01/10 12:16:22;;;;;;;12.67;4.50;;;9.40;99.90;;;;;;4909776;29;20545;-70
2023/01/10 12:18:51;;;;;;;17.33;4.67;;;9.60;99.90;;;;;;4913420;29;20423;-71
2023/01/10 12:21:30;;;;;;;19.17;5.10;;;9.70;99.90;;;;;;4915144;29;20475;-71
2023/01/10 12:23:59;;;;;;;22.27;5.37;;;9.50;99.90;;;;;;4914378;29;20798;-71
2023/01/10 12:26:29;;;;;;;18.43;4.60;;;9.40;99.90;;;;;;4903013;29;20523;-71
2023/01/10 12:28:58;;;;;;;13.93;4.30;;;9.30;99.90;;;;;;4902048;29;20479;-71
2023/01/10 12:31:26;;;;;;;14.30;4.00;;;9.40;99.90;;;;;;4902910;29;20479;-70
2023/01/10 12:34:00;;;;;;;19.67;3.87;;;9.50;99.90;;;;;;4904071;29;20508;-70
2023/01/10 12:36:36;;;;;;;29.63;5.67;;;9.50;99.90;;;;;;4907106;29;20479;-70
2023/01/10 12:39:22;;;;;;;15.63;3.90;;;9.60;99.90;;;;;;4907885;29;20514;-70
2023/01/10 12:44:42;;;;;;;15.00;3.87;;;9.70;99.90;;;;;;4917072;29;20522;-69
2023/01/10 12:47:29;;;;;;;18.30;5.20;;;9.70;99.90;;;;;;4918584;29;20443;-69
2023/01/10 12:50:20;;;;;;;17.47;4.03;;;9.70;99.90;;;;;;4919260;29;20449;-69
2023/01/10 12:52:55;;;;;;;18.70;4.23;;;9.70;99.90;;;;;;4917296;29;20435;-70
2023/01/10 12:55:25;;;;;;;11.67;3.50;;;9.60;99.90;;;;;;4916167;29;20506;-70
2023/01/10 12:57:54;;;;;;;17.70;4.30;;;9.70;99.90;;;;;;4914372;29;20447;-70
2023/01/10 13:00:28;;;;;;;17.77;6.17;;;9.70;99.90;;;;;;4913533;29;20840;-69
2023/01/10 13:02:57;;;;;;;15.73;3.43;;;9.80;99.90;;;;;;4908768;29;20543;-69
2023/01/10 13:05:25;;;;;;;20.30;4.57;;;9.80;99.90;;;;;;4911217;29;20448;-70
2023/01/10 13:07:54;;;;;;;18.00;5.33;;;9.70;99.90;;;;;;4916304;29;20440;-70
2023/01/10 13:10:23;;;;;;;17.07;5.10;;;9.70;99.90;;;;;;4906389;29;20508;-70
2023/01/10 13:12:56;;;;;;;13.57;3.80;;;9.70;99.90;;;;;;4902481;29;20537;-71
2023/01/10 13:15:30;;;;;;;7.70;3.90;;;9.80;99.90;;;;;;4900711;29;20567;-68
2023/01/10 13:18:02;;;;;;;16.20;3.37;;;9.80;99.90;;;;;;4911435;29;20498;-69
2023/01/10 13:20:36;;;;;;;20.83;4.07;;;9.80;99.90;;;;;;4912642;29;20447;-70
2023/01/10 13:23:21;;;;;;;17.63;4.23;;;9.80;99.90;;;;;;4915054;29;20532;-70
2023/01/10 13:25:55;;;;;;;16.57;3.73;;;9.70;99.90;;;;;;4915746;29;20805;-69
2023/01/10 13:28:27;;;;;;;10.43;3.97;;;9.80;99.90;;;;;;4916783;29;20437;-69
2023/01/10 13:30:59;;;;;;;14.10;4.00;;;9.80;99.90;;;;;;4917466;29;20483;-69
2023/01/10 13:33:30;;;;;;;12.47;4.03;;;9.80;99.90;;;;;;4916184;29;20848;-69
2023/01/10 13:36:09;;;;;;;12.80;3.67;;;9.80;99.90;;;;;;4913536;29;20471;-71
2023/01/10 13:38:44;;;;;;;16.03;4.63;;;9.80;99.90;;;;;;4909328;29;20439;-72
2023/01/10 13:43:17;;;;;;;21.30;4.10;;;9.70;99.90;;;;;;4893582;29;20440;-71
2023/01/10 13:44:05;;;;;;;21.73;7.32;;;9.70;99.90;;;;;;4899477;29;20492;-73
2023/01/10 13:46:30;;;;;;;13.60;2.87;;;9.80;99.90;;;;;;4911528;29;20187;-73
2023/01/10 13:48:59;;;;;;;8.40;2.60;;;9.80;99.90;;;;;;4914060;29;21230;-74
2023/01/10 13:51:25;;;;;;;6.43;3.40;;;9.60;99.90;;;;;;4912335;29;20655;-74
2023/01/10 13:53:55;;;;;;;16.07;2.90;;;9.70;99.90;;;;;;4906477;29;20435;-74
2023/01/10 13:56:31;;;;;;;14.93;3.77;;;9.70;99.90;;;;;;4907227;29;20949;-74
2023/01/10 14:04:27;;;;;;;10.10;3.40;;;9.60;99.90;;;;;;4912903;29;20482;-74
2023/01/10 14:06:56;;;;;;;11.80;5.00;;;9.60;99.90;;;;;;4901576;29;20456;-76
2023/01/10 14:09:21;;;;;;;11.33;3.07;;;9.60;99.90;;;;;;4900375;29;20871;-75
2023/01/10 14:11:51;;;;;;;13.43;4.07;;;9.40;99.90;;;;;;4906448;29;20478;-75
2023/01/10 14:14:25;;;;;;;13.83;3.70;;;9.40;99.90;;;;;;4915300;29;20270;-75
2023/01/10 14:17:20;;;;;;;15.27;3.30;;;9.40;99.90;;;;;;4913520;29;20574;-75
2023/01/10 14:19:56;;;;;;;16.00;3.27;;;9.50;99.90;;;;;;4910795;29;20511;-75
2023/01/10 14:22:30;;;;;;;10.20;2.80;;;9.40;99.90;;;;;;4908792;29;20445;-75
2023/01/10 14:24:57;;;;;;;13.63;3.73;;;9.30;99.90;;;;;;4908573;29;20527;-74
2023/01/10 14:27:23;;;;;;;11.70;3.80;;;9.30;99.90;;;;;;4907280;29;20496;-74
2023/01/10 14:29:52;;;;;;;16.13;3.00;;;9.30;99.90;;;;;;4909860;29;20441;-73
2023/01/10 14:32:29;;;;;;;10.70;3.17;;;9.20;99.90;;;;;;4912979;29;20505;-74
2023/01/10 14:34:55;;;;;;;11.40;2.70;;;9.20;99.90;;;;;;4904070;29;20436;-74
2023/01/10 14:37:30;;;;;;;7.13;2.60;;;9.20;99.90;;;;;;4899375;29;20486;-74
2023/01/10 14:39:57;;;;;;;12.93;2.90;;;9.30;99.90;;;;;;4899394;29;20247;-74
2023/01/10 14:42:26;;;;;;;13.17;3.30;;;9.20;99.90;;;;;;4901519;29;20822;-74
2023/01/10 14:45:07;;;;;;;12.93;2.87;;;9.30;99.90;;;;;;4903183;29;20964;-74
2023/01/10 14:47:36;;;;;;;10.43;2.70;;;9.20;99.90;;;;;;4911254;29;20439;-74
2023/01/10 14:50:03;;;;;;;9.70;2.93;;;9.10;99.90;;;;;;4910344;29;20436;-74
2023/01/10 14:52:29;;;;;;;9.53;2.90;;;9.10;99.90;;;;;;4908438;29;20440;-74
2023/01/10 14:55:03;;;;;;;13.43;3.30;;;9.00;99.90;;;;;;4906103;29;20440;-74
2023/01/10 14:57:29;;;;;;;10.57;3.97;;;9.00;99.90;;;;;;4886798;29;20448;-73
2023/01/10 15:00:04;;;;;;;9.27;2.57;;;9.00;99.90;;;;;;4902704;29;20522;-74
2023/01/10 15:02:30;;;;;;;13.03;4.10;;;8.90;99.90;;;;;;4883671;29;20243;-74
2023/01/10 15:05:08;;;;;;;6.93;2.83;;;8.90;99.90;;;;;;4899003;29;20509;-74
2023/01/10 15:07:35;;;;;;;6.70;2.73;;;8.90;99.90;;;;;;4899630;29;20196;-74
2023/01/10 15:10:09;;;;;;;15.50;3.90;;;8.90;99.90;;;;;;4901018;29;20785;-74
2023/01/10 15:12:36;;;;;;;15.93;3.60;;;8.80;99.90;;;;;;4912622;29;20446;-74
2023/01/10 15:15:11;;;;;;;12.17;3.13;;;8.80;99.90;;;;;;4911174;29;20849;-74
2023/01/10 15:17:38;;;;;;;17.43;3.47;;;8.80;99.90;;;;;;4906444;29;20439;-73
2023/01/10 15:20:04;;;;;;;8.13;4.70;;;8.80;99.90;;;;;;4908226;29;20454;-74
2023/01/10 15:22:34;;;;;;;10.03;2.73;;;8.80;99.90;;;;;;4909060;29;20463;-82
2023/01/10 15:25:06;;;;;;;14.43;3.50;;;8.70;99.90;;;;;;4903156;29;20447;-71
2023/01/10 15:27:35;;;;;;;16.00;2.47;;;8.90;99.90;;;;;;4913486;29;20188;-70
2023/01/10 15:30:06;;;;;;;18.40;3.87;;;9.00;99.90;;;;;;4911464;29;20459;-70
2023/01/10 15:32:37;;;;;;;5.87;2.47;;;9.00;99.90;;;;;;4910071;29;20484;-71
2023/01/10 15:35:05;;;;;;;6.10;1.63;;;9.00;99.90;;;;;;4910503;29;20582;-70
2023/01/10 15:37:35;;;;;;;17.97;3.33;;;9.00;99.90;;;;;;4911486;29;20451;-69
2023/01/10 15:40:02;;;;;;;13.10;3.57;;;8.80;99.90;;;;;;4913372;29;20527;-71
2023/01/10 15:42:30;;;;;;;13.60;3.90;;;8.70;99.90;;;;;;4914263;29;20449;-70
2023/01/10 15:44:56;;;;;;;7.00;2.80;;;8.70;99.90;;;;;;4914455;29;20530;-69
2023/01/10 15:47:48;;;;;;;9.93;4.07;;;8.70;99.90;;;;;;4914305;29;20450;-69
2023/01/10 15:50:22;;;;;;;13.47;2.90;;;8.80;99.90;;;;;;4913428;29;20461;-70
2023/01/10 15:53:02;;;;;;;10.40;3.63;;;8.70;99.90;;;;;;4913645;29;20439;-69
2023/01/10 15:55:48;;;;;;;12.87;3.60;;;8.70;99.90;;;;;;4910969;29;20462;-70
2023/01/10 15:58:34;;;;;;;16.80;2.90;;;8.70;99.90;;;;;;4912286;29;20520;-71
2023/01/10 16:01:01;;;;;;;7.10;3.20;;;8.70;99.90;;;;;;4909650;29;20468;-71
2023/01/10 16:03:36;;;;;;;9.70;3.23;;;8.70;99.90;;;;;;4911978;29;20428;-71
2023/01/10 16:06:07;;;;;;;15.47;3.03;;;8.70;99.90;;;;;;4908344;29;20450;-71
2023/01/10 16:08:35;;;;;;;5.40;2.27;;;8.70;99.90;;;;;;4909468;29;20526;-71
2023/01/10 16:11:05;;;;;;;6.23;3.13;;;8.80;99.90;;;;;;4907354;29;20441;-71
2023/01/10 16:13:32;;;;;;;18.23;3.70;;;8.80;99.90;;;;;;4905879;29;20496;-72
2023/01/10 16:15:59;;;;;;;11.73;3.47;;;8.80;99.90;;;;;;4905474;29;20510;-71
2023/01/10 16:18:26;;;;;;;10.10;3.07;;;8.80;99.90;;;;;;4903993;29;20801;-71
2023/01/10 16:20:55;;;;;;;14.10;5.50;;;8.80;99.90;;;;;;4902600;29;20476;-72
2023/01/10 16:23:33;;;;;;;10.50;3.00;;;8.70;99.90;;;;;;4913076;29;21017;-71
2023/01/10 16:26:03;;;;;;;11.90;2.90;;;8.70;99.90;;;;;;4899244;29;20856;-71
2023/01/10 16:28:34;;;;;;;15.47;3.10;;;8.70;99.90;;;;;;4898076;29;20463;-71
2023/01/10 16:31:00;;;;;;;16.17;3.37;;;8.50;99.90;;;;;;4882410;29;20468;-71
2023/01/10 16:33:26;;;;;;;10.00;3.73;;;8.60;99.90;;;;;;4912699;29;20783;-71
2023/01/10 16:35:57;;;;;;;9.00;4.13;;;8.60;99.90;;;;;;4910502;29;20474;-71
2023/01/10 16:38:25;;;;;;;14.40;3.60;;;8.50;99.90;;;;;;4906121;29;20918;-72
2023/01/10 16:40:53;;;;;;;15.77;3.87;;;8.60;99.90;;;;;;4905680;29;20448;-71
2023/01/10 16:43:22;;;;;;;9.03;2.87;;;8.50;99.90;;;;;;4903923;29;20437;-71
2023/01/10 16:45:49;;;;;;;11.20;2.57;;;8.60;99.90;;;;;;4901630;29;20492;-72
2023/01/10 16:48:16;;;;;;;15.67;4.00;;;8.60;99.90;;;;;;4901830;29;20612;-72
2023/01/10 16:50:41;;;;;;;7.27;2.73;;;8.60;99.90;;;;;;4898326;29;20544;-71
2023/01/10 16:53:13;;;;;;;11.60;4.00;;;8.60;99.90;;;;;;4896663;29;20528;-71
2023/01/10 16:55:42;;;;;;;13.57;3.80;;;8.60;99.90;;;;;;4895660;29;20694;-71
2023/01/10 16:58:09;;;;;;;12.47;3.20;;;8.70;99.90;;;;;;4897101;29;20483;-71
2023/01/10 17:00:36;;;;;;;10.47;2.77;;;8.60;99.90;;;;;;4898694;29;20945;-71
2023/01/10 17:03:09;;;;;;;10.00;2.90;;;8.50;99.90;;;;;;4902934;29;20595;-71
2023/01/10 17:05:37;;;;;;;13.20;3.10;;;8.60;99.90;;;;;;4911424;29;20945;-72
2023/01/10 17:08:03;;;;;;;9.00;2.90;;;8.60;99.90;;;;;;4912406;29;20960;-72
2023/01/10 17:10:31;;;;;;;11.40;3.10;;;8.60;99.90;;;;;;4912252;29;20436;-73
2023/01/10 17:12:57;;;;;;;9.80;4.17;;;8.40;99.90;;;;;;4894387;29;20519;-71
2023/01/10 17:15:22;;;;;;;12.13;3.97;;;8.30;99.90;;;;;;4910181;29;20551;-71
2023/01/10 17:17:48;;;;;;;11.57;4.23;;;8.40;99.90;;;;;;4911132;29;20187;-72